Hovedside
METAR-TAF:

METAR-TAF

Lufthavner :

Scappoose Industrial Airpark

Scappoose, Oregon, USA

breddegrad: 45-46-09N, lengdegrad: 122-51-44W, høyde over havet: 16 m

Gjeldene værobservasjon

Denne rapporten ble laget for 17 minutter siden, klokken 18:53 UTC
Vind 5 kt fra Sør-sørøst
Temperatur 8°C
Luftfuktighet 71%
Trykk 1010 hPa
Sikt: 16.1 km
Brutte skyer i en høyde av 7500 ft
Overskyet i en høyde av 9500 ft

METAR: KSPB 211853Z AUTO 16005KT 10SM BKN075 OVC095 08/03 A2983 RMK AO2 RAE52 SLP101 P0002 T00780033

Tid: 11:10 (19:10 UTC)


TAF: fraværende

Værobservasjoner og værvarsel for over 4000 flyplasser (METAR- og TAF-rapporter).

Tilgjengelige stasjoner er representert av de røde og gule prikkene på kartet.

Hold musepekeren over prikken for å se navnet på stasjonen.

Klikk så for å se værobservasjoner og -varsler.

For å forandre kartet kan du klikke på den grønne knappen med svart kryss for å zoome inn, på den grønne knappen med strek for å zoome ut, eller på de grønne pilene for å se tilstøtende kart.


METAR-TAF: